Time;durP1;ratioP1;P1;durP2;ratioP2;P2;SDS_P1;SDS_P2;PMS_P1;PMS_P2;Temp;Humidity;BMP_temperature;BMP_pressure;BME280_temperature;BME280_humidity;BME280_pressure;Samples;Min_cycle;Max_cycle;Signal;HPM_P1;HPM_P2
2022/12/20 00:01:12;;;;;;;4.20;3.45;;;;;;;;;;5028965;28;20029;-69
2022/12/20 00:03:38;;;;;;;5.45;3.83;;;;;;;;;;5044803;28;20017;-69
2022/12/20 00:06:04;;;;;;;7.03;3.60;;;;;;;;;;5046693;28;20087;-70
2022/12/20 00:08:30;;;;;;;4.65;3.13;;;;;;;;;;5043882;28;20156;-69
2022/12/20 00:10:59;;;;;;;6.20;3.72;;;;;;;;;;5050699;28;20044;-69
2022/12/20 00:13:25;;;;;;;6.20;3.53;;;;;;;;;;5032685;28;20057;-69
2022/12/20 00:16:02;;;;;;;5.60;3.60;;;;;;;;;;5026220;28;20037;-69
2022/12/20 00:18:28;;;;;;;5.45;3.20;;;;;;;;;;5046590;28;20381;-69
2022/12/20 00:20:58;;;;;;;7.15;3.50;;;;;;;;;;5044759;28;20462;-71
2022/12/20 00:23:24;;;;;;;11.38;3.33;;;;;;;;;;5034405;28;20034;-69
2022/12/20 00:25:50;;;;;;;8.32;3.38;;;;;;;;;;5029483;28;20071;-69
2022/12/20 00:28:16;;;;;;;5.25;3.03;;;;;;;;;;5046194;28;20507;-69
2022/12/20 00:30:42;;;;;;;5.40;3.30;;;;;;;;;;5048530;28;20119;-74
2022/12/20 00:33:08;;;;;;;4.93;3.00;;;;;;;;;;5044900;28;20061;-70
2022/12/20 00:35:34;;;;;;;7.00;3.40;;;;;;;;;;5048396;28;20482;-69
2022/12/20 00:38:00;;;;;;;6.47;3.38;;;;;;;;;;5046120;28;20485;-73
2022/12/20 00:40:27;;;;;;;6.13;3.25;;;;;;;;;;5029500;28;20465;-69
2022/12/20 00:42:53;;;;;;;4.43;3.25;;;;;;;;;;5029352;28;20083;-71
2022/12/20 00:45:19;;;;;;;6.30;2.97;;;;;;;;;;5047978;28;20461;-69
2022/12/20 00:47:45;;;;;;;7.45;4.30;;;;;;;;;;5049700;28;20025;-70
2022/12/20 00:50:12;;;;;;;6.70;3.03;;;;;;;;;;5047324;28;20048;-69
2022/12/20 00:52:38;;;;;;;7.18;3.10;;;;;;;;;;5043322;28;20117;-71
2022/12/20 00:55:04;;;;;;;3.42;2.88;;;;;;;;;;5026388;28;20036;-70
2022/12/20 00:57:30;;;;;;;6.40;2.75;;;;;;;;;;5046450;28;20074;-71
2022/12/20 00:59:56;;;;;;;4.40;2.60;;;;;;;;;;5028928;28;20643;-73
2022/12/20 01:02:22;;;;;;;3.42;2.75;;;;;;;;;;5043531;28;20051;-69
2022/12/20 01:04:49;;;;;;;4.22;2.90;;;;;;;;;;5048667;28;20068;-69
2022/12/20 01:07:15;;;;;;;5.18;2.60;;;;;;;;;;5044472;28;20474;-70
2022/12/20 01:09:41;;;;;;;5.13;3.17;;;;;;;;;;5046173;28;20057;-70
2022/12/20 01:12:07;;;;;;;7.78;2.95;;;;;;;;;;5045775;28;20071;-68
2022/12/20 01:14:33;;;;;;;5.43;2.83;;;;;;;;;;5044712;28;20021;-69
2022/12/20 01:16:59;;;;;;;5.25;2.70;;;;;;;;;;5047074;28;20052;-73
2022/12/20 01:19:26;;;;;;;5.78;2.63;;;;;;;;;;5049263;28;20052;-68
2022/12/20 01:21:52;;;;;;;5.70;2.65;;;;;;;;;;5041029;28;20100;-68
2022/12/20 01:24:19;;;;;;;4.55;2.55;;;;;;;;;;5045206;28;20048;-72
2022/12/20 01:26:45;;;;;;;4.72;3.08;;;;;;;;;;5045080;28;20544;-68
2022/12/20 01:29:12;;;;;;;4.45;2.60;;;;;;;;;;5024518;28;20047;-68
2022/12/20 01:31:39;;;;;;;5.80;2.88;;;;;;;;;;5043051;28;20017;-68
2022/12/20 01:34:05;;;;;;;3.55;2.83;;;;;;;;;;5048285;28;20025;-68
2022/12/20 01:36:32;;;;;;;4.55;2.70;;;;;;;;;;5044510;28;20059;-67
2022/12/20 01:38:59;;;;;;;6.28;3.15;;;;;;;;;;5041263;28;20470;-68
2022/12/20 01:41:27;;;;;;;5.57;2.70;;;;;;;;;;5026231;28;20025;-68
2022/12/20 01:43:54;;;;;;;5.07;2.78;;;;;;;;;;5047519;28;20029;-67
2022/12/20 01:46:22;;;;;;;8.23;2.65;;;;;;;;;;5026438;28;20029;-68
2022/12/20 01:48:57;;;;;;;3.85;2.25;;;;;;;;;;5042504;28;20029;-68
2022/12/20 01:51:23;;;;;;;3.97;2.35;;;;;;;;;;5043735;28;20021;-67
2022/12/20 01:53:52;;;;;;;6.45;2.83;;;;;;;;;;5044565;28;20453;-67
2022/12/20 01:56:18;;;;;;;5.70;2.80;;;;;;;;;;5044178;28;20374;-68
2022/12/20 01:58:46;;;;;;;8.23;3.00;;;;;;;;;;5045287;28;20025;-69
2022/12/20 02:01:12;;;;;;;6.80;3.30;;;;;;;;;;5043531;28;20131;-69
2022/12/20 02:03:38;;;;;;;6.07;2.83;;;;;;;;;;5022994;28;20500;-67
2022/12/20 02:06:15;;;;;;;4.07;2.50;;;;;;;;;;5027722;28;20483;-68
2022/12/20 02:08:41;;;;;;;4.60;2.63;;;;;;;;;;5042002;28;20053;-74
2022/12/20 02:11:25;;;;;;;3.70;2.47;;;;;;;;;;5045719;28;20440;-73
2022/12/20 02:14:00;;;;;;;5.45;2.40;;;;;;;;;;5047697;28;20079;-68
2022/12/20 02:16:29;;;;;;;4.32;2.63;;;;;;;;;;5043317;28;20489;-72
2022/12/20 02:18:59;;;;;;;5.32;2.78;;;;;;;;;;5039800;28;20033;-67
2022/12/20 02:21:31;;;;;;;5.63;2.90;;;;;;;;;;5044133;28;20106;-69
2022/12/20 02:24:19;;;;;;;7.20;2.85;;;;;;;;;;5047756;28;20029;-67
2022/12/20 02:27:03;;;;;;;5.47;2.38;;;;;;;;;;5043870;28;20072;-69
2022/12/20 02:29:48;;;;;;;4.97;3.17;;;;;;;;;;5042412;28;20080;-69
2022/12/20 02:32:19;;;;;;;4.88;2.50;;;;;;;;;;5026711;28;20588;-68
2022/12/20 02:34:45;;;;;;;4.15;2.53;;;;;;;;;;5043495;28;20474;-68
2022/12/20 02:37:11;;;;;;;6.85;2.65;;;;;;;;;;5045802;28;20036;-69
2022/12/20 02:39:39;;;;;;;8.20;3.50;;;;;;;;;;5043773;28;20071;-69
2022/12/20 02:42:22;;;;;;;6.93;3.50;;;;;;;;;;5045917;28;20052;-71
2022/12/20 02:47:54;;;;;;;5.55;3.22;;;;;;;;;;5039603;28;20033;-68
2022/12/20 02:50:27;;;;;;;3.67;2.80;;;;;;;;;;5045607;28;20025;-68
2022/12/20 02:52:53;;;;;;;6.28;2.90;;;;;;;;;;5044792;28;20099;-68
2022/12/20 02:55:22;;;;;;;5.50;2.88;;;;;;;;;;5039503;28;20394;-69
2022/12/20 02:57:52;;;;;;;6.95;3.20;;;;;;;;;;5020478;28;20056;-69
2022/12/20 03:00:19;;;;;;;8.30;3.30;;;;;;;;;;5044880;28;20092;-70
2022/12/20 03:05:32;;;;;;;11.63;3.45;;;;;;;;;;5046564;28;20542;-70
2022/12/20 03:07:59;;;;;;;6.38;3.40;;;;;;;;;;5047386;28;20547;-72
2022/12/20 03:10:25;;;;;;;8.30;3.92;;;;;;;;;;5032881;28;20029;-69
2022/12/20 03:12:51;;;;;;;6.93;3.58;;;;;;;;;;5043249;28;20065;-70
2022/12/20 03:15:17;;;;;;;7.82;4.10;;;;;;;;;;5041500;28;20044;-70
2022/12/20 03:17:43;;;;;;;5.35;3.53;;;;;;;;;;5032548;28;20025;-68
2022/12/20 03:20:10;;;;;;;7.22;3.70;;;;;;;;;;5051148;28;20025;-70
2022/12/20 03:22:36;;;;;;;5.03;3.47;;;;;;;;;;5044275;28;20121;-68
2022/12/20 03:25:03;;;;;;;4.97;2.92;;;;;;;;;;5049167;28;20020;-68
2022/12/20 03:27:29;;;;;;;4.22;3.15;;;;;;;;;;5045926;28;20556;-69
2022/12/20 03:29:55;;;;;;;7.95;3.30;;;;;;;;;;5029521;28;20045;-69
2022/12/20 03:32:22;;;;;;;4.47;3.00;;;;;;;;;;5048645;28;20035;-68
2022/12/20 03:34:48;;;;;;;5.65;3.05;;;;;;;;;;5047571;28;20059;-69
2022/12/20 03:37:14;;;;;;;7.88;3.90;;;;;;;;;;5032000;28;20505;-68
2022/12/20 03:39:40;;;;;;;7.35;4.10;;;;;;;;;;5026745;28;20029;-68
2022/12/20 03:42:06;;;;;;;9.45;3.35;;;;;;;;;;5051480;28;20094;-68
2022/12/20 03:44:32;;;;;;;5.20;3.30;;;;;;;;;;5046659;28;20477;-69
2022/12/20 03:46:58;;;;;;;7.40;3.97;;;;;;;;;;5044110;28;20029;-69
2022/12/20 03:49:24;;;;;;;6.65;3.97;;;;;;;;;;5044951;28;20029;-69
2022/12/20 03:51:50;;;;;;;7.15;3.42;;;;;;;;;;5048011;28;20044;-67
2022/12/20 03:54:16;;;;;;;7.13;3.38;;;;;;;;;;5028708;28;20032;-68
2022/12/20 03:56:42;;;;;;;9.43;3.53;;;;;;;;;;5046906;28;20381;-67
2022/12/20 03:59:08;;;;;;;5.78;3.30;;;;;;;;;;5033768;28;20068;-68
2022/12/20 04:01:35;;;;;;;5.03;3.45;;;;;;;;;;5042695;28;20033;-69
2022/12/20 04:04:02;;;;;;;7.18;3.95;;;;;;;;;;5050256;28;20021;-68
2022/12/20 04:06:28;;;;;;;6.32;3.90;;;;;;;;;;5046890;28;20045;-69
2022/12/20 04:08:54;;;;;;;5.25;3.72;;;;;;;;;;5044848;28;20092;-73
2022/12/20 04:11:21;;;;;;;6.60;3.72;;;;;;;;;;5029906;28;20036;-69
2022/12/20 04:13:51;;;;;;;5.72;3.70;;;;;;;;;;5030354;28;20048;-70
2022/12/20 04:16:18;;;;;;;5.25;3.60;;;;;;;;;;5042293;28;20037;-68
2022/12/20 04:18:44;;;;;;;7.88;4.45;;;;;;;;;;5050590;28;20493;-67
2022/12/20 04:21:11;;;;;;;9.00;4.28;;;;;;;;;;5046040;28;20029;-68
2022/12/20 04:23:38;;;;;;;8.57;3.60;;;;;;;;;;5032892;28;20028;-68
2022/12/20 04:26:05;;;;;;;5.63;3.33;;;;;;;;;;5026478;28;20038;-68
2022/12/20 04:28:31;;;;;;;5.53;4.10;;;;;;;;;;5045384;28;20025;-68
2022/12/20 04:30:58;;;;;;;10.35;3.92;;;;;;;;;;5039848;28;20029;-71
2022/12/20 04:33:25;;;;;;;6.93;3.83;;;;;;;;;;5023143;28;20453;-68
2022/12/20 04:35:51;;;;;;;9.38;4.50;;;;;;;;;;5043649;28;20042;-68
2022/12/20 04:38:17;;;;;;;7.07;4.18;;;;;;;;;;5041492;28;20396;-72
2022/12/20 04:40:43;;;;;;;5.50;3.63;;;;;;;;;;5047504;28;20025;-68
2022/12/20 04:43:10;;;;;;;8.32;4.03;;;;;;;;;;5043241;28;20029;-68
2022/12/20 04:45:36;;;;;;;5.55;3.58;;;;;;;;;;5047407;28;20393;-68
2022/12/20 04:48:02;;;;;;;7.13;3.80;;;;;;;;;;5029904;28;20120;-68
2022/12/20 04:50:28;;;;;;;6.68;5.03;;;;;;;;;;5045490;28;20033;-71
2022/12/20 04:55:39;;;;;;;5.88;4.45;;;;;;;;;;5035402;28;20049;-68
2022/12/20 04:58:05;;;;;;;8.65;3.80;;;;;;;;;;5051147;28;20103;-68
2022/12/20 05:00:31;;;;;;;6.07;3.30;;;;;;;;;;5050436;28;20174;-70
2022/12/20 05:02:58;;;;;;;7.18;3.50;;;;;;;;;;5022431;28;20029;-69
2022/12/20 05:05:24;;;;;;;7.95;3.50;;;;;;;;;;5041619;28;20465;-68
2022/12/20 05:07:51;;;;;;;6.05;3.38;;;;;;;;;;5042863;28;20342;-68
2022/12/20 05:10:17;;;;;;;10.23;4.43;;;;;;;;;;5048613;28;20040;-68
2022/12/20 05:12:44;;;;;;;7.75;3.65;;;;;;;;;;5035594;28;20040;-68
2022/12/20 05:15:10;;;;;;;6.72;3.58;;;;;;;;;;5026267;28;20025;-68
2022/12/20 05:17:36;;;;;;;5.45;3.92;;;;;;;;;;5034379;28;20525;-68
2022/12/20 05:20:03;;;;;;;7.35;3.22;;;;;;;;;;5031887;28;20029;-69
2022/12/20 05:27:58;;;;;;;9.40;5.63;;;;;;;;;;5047533;28;20044;-70
2022/12/20 05:30:25;;;;;;;7.82;3.67;;;;;;;;;;5043100;28;20033;-68
2022/12/20 05:32:51;;;;;;;5.72;3.53;;;;;;;;;;5040257;28;20024;-68
2022/12/20 05:35:17;;;;;;;5.25;3.05;;;;;;;;;;5042537;28;20048;-68
2022/12/20 05:37:44;;;;;;;5.40;3.38;;;;;;;;;;5042795;28;21334;-72
2022/12/20 05:40:10;;;;;;;5.60;3.08;;;;;;;;;;5027709;28;20497;-69
2022/12/20 05:42:37;;;;;;;3.63;2.90;;;;;;;;;;5044175;28;20393;-67
2022/12/20 05:45:04;;;;;;;7.57;3.13;;;;;;;;;;5045755;28;20118;-67
2022/12/20 05:47:32;;;;;;;5.25;2.63;;;;;;;;;;5039654;28;20868;-68
2022/12/20 05:49:58;;;;;;;6.95;3.78;;;;;;;;;;5025664;28;20025;-72
2022/12/20 05:52:25;;;;;;;6.38;3.75;;;;;;;;;;5042793;28;20064;-70
2022/12/20 05:54:51;;;;;;;4.70;2.95;;;;;;;;;;5019461;28;20034;-69
2022/12/20 05:57:17;;;;;;;7.25;3.22;;;;;;;;;;5042960;28;20045;-69
2022/12/20 05:59:43;;;;;;;7.00;2.85;;;;;;;;;;5042717;28;20131;-69
2022/12/20 06:02:09;;;;;;;10.15;3.17;;;;;;;;;;5041395;28;20516;-69
2022/12/20 06:04:37;;;;;;;3.88;2.85;;;;;;;;;;5040562;28;20029;-69
2022/12/20 06:07:04;;;;;;;10.48;2.90;;;;;;;;;;5042994;28;20049;-72
2022/12/20 06:09:30;;;;;;;6.57;2.85;;;;;;;;;;5038762;28;20057;-70
2022/12/20 06:11:56;;;;;;;9.70;2.83;;;;;;;;;;5042170;28;20033;-71
2022/12/20 06:14:22;;;;;;;7.38;3.85;;;;;;;;;;5040691;28;20036;-72
2022/12/20 06:16:48;;;;;;;7.82;3.45;;;;;;;;;;5028216;28;20116;-68
2022/12/20 06:19:14;;;;;;;5.65;2.60;;;;;;;;;;5039618;28;20029;-68
2022/12/20 06:21:40;;;;;;;9.05;3.10;;;;;;;;;;5043619;28;20460;-69
2022/12/20 06:24:07;;;;;;;6.85;2.85;;;;;;;;;;5040108;28;20064;-68
2022/12/20 06:26:36;;;;;;;6.38;3.15;;;;;;;;;;5045590;28;20079;-68
2022/12/20 06:29:03;;;;;;;7.57;2.63;;;;;;;;;;5043216;28;20099;-68
2022/12/20 06:31:29;;;;;;;4.60;2.97;;;;;;;;;;5041701;28;20041;-68
2022/12/20 06:33:55;;;;;;;5.10;3.05;;;;;;;;;;5042029;28;20083;-69
2022/12/20 06:36:21;;;;;;;4.90;3.15;;;;;;;;;;5041843;28;20037;-68
2022/12/20 06:38:47;;;;;;;10.02;4.35;;;;;;;;;;5042831;28;20462;-69
2022/12/20 06:41:13;;;;;;;6.07;3.97;;;;;;;;;;5042433;28;20033;-70
2022/12/20 06:43:39;;;;;;;8.50;4.00;;;;;;;;;;5024578;28;20037;-72
2022/12/20 06:46:05;;;;;;;8.82;4.07;;;;;;;;;;5041198;28;20037;-67
2022/12/20 06:48:31;;;;;;;6.57;3.78;;;;;;;;;;5004735;28;20033;-69
2022/12/20 06:50:58;;;;;;;6.32;3.78;;;;;;;;;;5040151;28;20021;-69
2022/12/20 06:53:24;;;;;;;4.60;3.42;;;;;;;;;;5038798;28;20049;-68
2022/12/20 06:55:50;;;;;;;9.65;4.57;;;;;;;;;;5044119;28;20377;-69
2022/12/20 06:58:19;;;;;;;6.93;4.20;;;;;;;;;;5041425;28;21009;-68
2022/12/20 07:00:46;;;;;;;4.82;4.00;;;;;;;;;;5020477;28;20040;-69
2022/12/20 07:03:12;;;;;;;8.77;4.10;;;;;;;;;;5035303;28;20049;-70
2022/12/20 07:05:38;;;;;;;12.10;5.13;;;;;;;;;;5038373;28;20048;-69
2022/12/20 07:08:04;;;;;;;5.13;4.15;;;;;;;;;;5022692;28;20057;-69
2022/12/20 07:10:31;;;;;;;7.57;4.55;;;;;;;;;;5040051;28;20258;-70
2022/12/20 07:12:57;;;;;;;7.88;4.25;;;;;;;;;;5023444;28;20467;-71
2022/12/20 07:15:23;;;;;;;7.05;5.00;;;;;;;;;;5023839;28;20034;-69
2022/12/20 07:17:50;;;;;;;8.02;3.92;;;;;;;;;;5041800;28;20032;-69
2022/12/20 07:20:16;;;;;;;8.68;4.68;;;;;;;;;;5042713;28;20040;-69
2022/12/20 07:22:42;;;;;;;5.05;3.97;;;;;;;;;;5042180;28;20470;-72
2022/12/20 07:25:09;;;;;;;9.77;4.63;;;;;;;;;;5042786;28;20508;-68
2022/12/20 07:27:36;;;;;;;6.25;4.40;;;;;;;;;;5024851;28;20033;-68
2022/12/20 07:30:03;;;;;;;9.38;4.60;;;;;;;;;;5043423;28;20036;-70
2022/12/20 07:32:29;;;;;;;6.50;4.20;;;;;;;;;;5025767;28;20037;-71
2022/12/20 07:34:56;;;;;;;5.03;4.03;;;;;;;;;;5043134;28;20040;-68
2022/12/20 07:37:22;;;;;;;8.10;4.72;;;;;;;;;;5033380;28;20450;-69
2022/12/20 07:39:48;;;;;;;5.82;3.97;;;;;;;;;;5034000;28;20426;-68
2022/12/20 07:42:14;;;;;;;6.88;4.28;;;;;;;;;;5040934;28;20106;-72
2022/12/20 07:44:40;;;;;;;5.72;3.90;;;;;;;;;;5047108;28;20024;-68
2022/12/20 07:47:06;;;;;;;10.60;4.63;;;;;;;;;;5047828;28;20063;-67
2022/12/20 07:49:32;;;;;;;8.60;4.70;;;;;;;;;;5047451;28;20401;-68
2022/12/20 07:51:59;;;;;;;6.88;4.70;;;;;;;;;;5039018;28;20355;-68
2022/12/20 07:54:31;;;;;;;9.35;4.20;;;;;;;;;;5035377;28;20064;-69
2022/12/20 07:56:59;;;;;;;6.50;3.78;;;;;;;;;;5052476;28;20053;-69
2022/12/20 07:59:28;;;;;;;6.75;4.20;;;;;;;;;;5052625;28;20031;-68
2022/12/20 08:01:54;;;;;;;9.20;4.65;;;;;;;;;;5039654;28;20493;-68
2022/12/20 08:04:23;;;;;;;7.13;5.00;;;;;;;;;;5050490;28;20047;-69
2022/12/20 08:06:50;;;;;;;11.43;5.00;;;;;;;;;;5042873;28;20029;-69
2022/12/20 08:09:16;;;;;;;9.68;4.82;;;;;;;;;;5017805;28;20259;-68
2022/12/20 08:11:44;;;;;;;11.32;4.22;;;;;;;;;;5022273;28;20040;-68
2022/12/20 08:14:11;;;;;;;7.55;4.28;;;;;;;;;;5032005;28;20022;-69
2022/12/20 08:16:37;;;;;;;7.22;4.32;;;;;;;;;;5045088;28;20489;-68
2022/12/20 08:19:03;;;;;;;9.02;4.22;;;;;;;;;;5032900;28;20036;-68
2022/12/20 08:21:29;;;;;;;7.47;3.97;;;;;;;;;;5032058;28;20065;-68
2022/12/20 08:23:56;;;;;;;8.88;3.92;;;;;;;;;;5031676;28;20091;-67
2022/12/20 08:26:22;;;;;;;5.32;3.55;;;;;;;;;;5033270;28;20059;-69
2022/12/20 08:28:48;;;;;;;8.20;3.47;;;;;;;;;;5032268;28;20030;-68
2022/12/20 08:31:15;;;;;;;4.10;3.20;;;;;;;;;;5026707;28;20037;-68
2022/12/20 08:33:41;;;;;;;8.25;3.83;;;;;;;;;;5030841;28;20041;-67
2022/12/20 08:36:08;;;;;;;8.55;3.63;;;;;;;;;;5021315;28;20040;-68
2022/12/20 08:38:34;;;;;;;5.32;3.35;;;;;;;;;;5030568;28;20030;-68
2022/12/20 08:41:04;;;;;;;8.10;4.35;;;;;;;;;;5019494;28;20033;-67
2022/12/20 08:43:30;;;;;;;4.95;3.22;;;;;;;;;;5031772;28;20109;-67
2022/12/20 08:45:56;;;;;;;4.50;2.88;;;;;;;;;;5027094;28;20052;-68
2022/12/20 08:48:22;;;;;;;5.07;3.13;;;;;;;;;;5027398;28;20076;-67
2022/12/20 08:50:54;;;;;;;5.20;3.25;;;;;;;;;;5026268;28;20097;-70
2022/12/20 08:53:20;;;;;;;3.10;2.80;;;;;;;;;;5029215;28;20060;-70
2022/12/20 08:55:46;;;;;;;8.05;3.03;;;;;;;;;;5028912;28;20500;-68
2022/12/20 08:58:12;;;;;;;5.10;3.15;;;;;;;;;;5023214;28;20474;-68
2022/12/20 09:00:38;;;;;;;6.38;2.80;;;;;;;;;;5028188;28;20144;-68
2022/12/20 09:03:06;;;;;;;5.53;3.30;;;;;;;;;;5021521;28;20132;-68
2022/12/20 09:05:32;;;;;;;3.55;2.92;;;;;;;;;;5018907;28;20034;-68
2022/12/20 09:07:58;;;;;;;7.30;3.20;;;;;;;;;;5022870;28;20045;-68
2022/12/20 09:10:24;;;;;;;5.75;3.05;;;;;;;;;;5047252;28;20186;-68
2022/12/20 09:12:50;;;;;;;6.15;2.95;;;;;;;;;;5031867;28;20041;-67
2022/12/20 09:15:16;;;;;;;4.22;3.10;;;;;;;;;;5050909;28;20551;-67
2022/12/20 09:17:42;;;;;;;7.25;3.13;;;;;;;;;;5040548;28;20086;-73
2022/12/20 09:20:08;;;;;;;20.60;11.60;;;;;;;;;;5050414;28;20060;-67
2022/12/20 09:22:34;;;;;;;4.20;2.85;;;;;;;;;;5040970;28;20032;-67
2022/12/20 09:25:00;;;;;;;8.90;3.33;;;;;;;;;;5044406;28;20469;-68
2022/12/20 09:27:26;;;;;;;6.05;2.40;;;;;;;;;;5043533;28;20486;-68
2022/12/20 09:29:52;;;;;;;4.82;2.40;;;;;;;;;;5035101;28;20082;-69
2022/12/20 09:32:19;;;;;;;6.50;3.42;;;;;;;;;;5039044;28;20121;-67
2022/12/20 09:34:47;;;;;;;5.20;2.40;;;;;;;;;;5038324;28;20475;-70
2022/12/20 09:37:13;;;;;;;5.25;2.10;;;;;;;;;;5045132;28;20036;-69
2022/12/20 09:39:39;;;;;;;6.63;2.38;;;;;;;;;;5047035;28;20029;-68
2022/12/20 09:42:08;;;;;;;5.82;2.50;;;;;;;;;;5031812;28;20755;-68
2022/12/20 09:44:37;;;;;;;7.72;3.85;;;;;;;;;;5042737;28;20030;-70
2022/12/20 09:47:05;;;;;;;4.28;2.55;;;;;;;;;;5045034;28;20416;-70
2022/12/20 09:49:34;;;;;;;6.72;2.72;;;;;;;;;;5046284;28;20386;-68
2022/12/20 09:52:21;;;;;;;9.32;3.58;;;;;;;;;;5042056;28;20033;-69
2022/12/20 09:54:50;;;;;;;7.50;2.60;;;;;;;;;;5029399;28;20120;-70
2022/12/20 09:57:39;;;;;;;5.68;2.95;;;;;;;;;;5047022;28;20029;-70
2022/12/20 10:00:16;;;;;;;4.28;2.28;;;;;;;;;;5046303;28;20028;-69
2022/12/20 10:02:42;;;;;;;4.00;2.22;;;;;;;;;;5047064;28;20021;-69
2022/12/20 10:05:16;;;;;;;5.47;2.83;;;;;;;;;;5039900;28;20060;-70
2022/12/20 10:07:45;;;;;;;6.07;3.00;;;;;;;;;;5030394;28;20039;-68
2022/12/20 10:10:44;;;;;;;4.68;2.38;;;;;;;;;;5014781;28;20037;-70
2022/12/20 10:13:29;;;;;;;7.55;2.65;;;;;;;;;;4986589;28;20068;-68
2022/12/20 10:16:04;;;;;;;7.93;2.40;;;;;;;;;;5021298;28;20107;-69
2022/12/20 10:18:37;;;;;;;8.00;2.63;;;;;;;;;;5026511;28;20064;-67
2022/12/20 10:21:10;;;;;;;7.07;2.42;;;;;;;;;;5043682;28;20580;-73
2022/12/20 10:23:43;;;;;;;6.57;2.42;;;;;;;;;;5039020;28;20025;-68
2022/12/20 10:26:10;;;;;;;3.53;2.00;;;;;;;;;;5052525;28;20330;-69
2022/12/20 10:28:37;;;;;;;7.22;2.50;;;;;;;;;;5040722;28;20030;-68
2022/12/20 10:31:05;;;;;;;5.60;2.63;;;;;;;;;;5045017;28;20056;-72
2022/12/20 10:33:31;;;;;;;5.70;2.10;;;;;;;;;;5039642;28;20087;-72
2022/12/20 10:36:17;;;;;;;5.78;2.65;;;;;;;;;;5036598;28;20037;-71
2022/12/20 10:38:45;;;;;;;8.00;2.40;;;;;;;;;;5046532;28;20032;-69
2022/12/20 10:41:15;;;;;;;4.88;2.53;;;;;;;;;;5039043;28;20075;-68
2022/12/20 10:43:46;;;;;;;12.75;2.75;;;;;;;;;;5043572;28;20366;-68
2022/12/20 10:46:15;;;;;;;6.30;2.60;;;;;;;;;;5039840;28;20049;-70
2022/12/20 10:48:42;;;;;;;3.97;2.08;;;;;;;;;;5046528;28;20033;-68
2022/12/20 10:51:08;;;;;;;5.40;2.70;;;;;;;;;;5050345;28;20021;-68
2022/12/20 10:53:35;;;;;;;5.55;2.38;;;;;;;;;;5050194;28;20071;-68
2022/12/20 10:56:18;;;;;;;4.55;2.08;;;;;;;;;;5046138;28;20037;-68
2022/12/20 10:58:51;;;;;;;4.57;2.90;;;;;;;;;;5050581;28;20028;-68
2022/12/20 11:01:18;;;;;;;4.60;2.40;;;;;;;;;;5030915;28;20037;-72
2022/12/20 11:03:59;;;;;;;5.03;2.75;;;;;;;;;;5033796;28;20033;-68
2022/12/20 11:06:27;;;;;;;4.65;2.92;;;;;;;;;;5046873;28;20044;-70
2022/12/20 11:08:53;;;;;;;5.40;2.67;;;;;;;;;;5039921;28;20083;-69
2022/12/20 11:11:23;;;;;;;9.98;3.35;;;;;;;;;;5050397;28;20508;-69
2022/12/20 11:13:50;;;;;;;7.70;3.58;;;;;;;;;;5020306;28;20045;-69
2022/12/20 11:16:29;;;;;;;4.28;2.35;;;;;;;;;;5018985;28;20086;-72
2022/12/20 11:19:13;;;;;;;9.40;2.85;;;;;;;;;;5044955;28;20040;-67
2022/12/20 11:21:54;;;;;;;4.78;2.30;;;;;;;;;;5050143;28;20036;-68
2022/12/20 11:24:28;;;;;;;4.47;2.45;;;;;;;;;;5034574;28;20095;-68
2022/12/20 11:27:10;;;;;;;10.00;2.95;;;;;;;;;;5052093;28;20370;-71
2022/12/20 11:29:50;;;;;;;5.07;2.47;;;;;;;;;;5050879;28;20037;-68
2022/12/20 11:32:39;;;;;;;5.95;2.75;;;;;;;;;;5032715;28;21687;-70
2022/12/20 11:35:12;;;;;;;4.78;2.65;;;;;;;;;;5043548;28;20385;-67
2022/12/20 11:37:46;;;;;;;6.22;2.78;;;;;;;;;;5039322;28;20032;-71
2022/12/20 11:40:26;;;;;;;5.07;2.83;;;;;;;;;;5038536;28;20017;-67
2022/12/20 11:43:02;;;;;;;6.40;2.70;;;;;;;;;;5040932;28;20350;-67
2022/12/20 11:45:35;;;;;;;10.90;3.72;;;;;;;;;;5027390;28;20087;-71
2022/12/20 11:48:19;;;;;;;7.50;3.30;;;;;;;;;;5045517;28;20083;-67
2022/12/20 11:50:50;;;;;;;7.78;3.15;;;;;;;;;;5049380;28;20021;-68
2022/12/20 11:53:36;;;;;;;6.18;3.05;;;;;;;;;;5043199;28;20037;-69
2022/12/20 11:56:17;;;;;;;8.27;3.00;;;;;;;;;;5033828;28;20429;-69
2022/12/20 11:58:53;;;;;;;5.47;3.28;;;;;;;;;;5049866;28;20028;-69
2022/12/20 12:01:24;;;;;;;6.25;3.03;;;;;;;;;;5051411;28;20029;-69
2022/12/20 12:04:04;;;;;;;6.82;3.50;;;;;;;;;;5050403;28;20143;-69
2022/12/20 12:06:43;;;;;;;9.32;3.75;;;;;;;;;;5053071;28;20037;-71
2022/12/20 12:09:15;;;;;;;6.13;4.00;;;;;;;;;;5047689;28;20095;-70
2022/12/20 12:12:01;;;;;;;7.60;5.10;;;;;;;;;;5046785;28;20087;-71
2022/12/20 12:14:38;;;;;;;10.93;6.20;;;;;;;;;;5046135;28;20029;-70
2022/12/20 12:17:09;;;;;;;9.10;4.10;;;;;;;;;;5038898;28;20094;-70
2022/12/20 12:19:38;;;;;;;8.75;4.82;;;;;;;;;;5042466;28;20108;-69
2022/12/20 12:22:07;;;;;;;9.27;4.82;;;;;;;;;;5050708;28;20124;-68
2022/12/20 12:24:42;;;;;;;6.63;4.97;;;;;;;;;;5051814;28;20033;-73
2022/12/20 12:27:14;;;;;;;8.52;5.35;;;;;;;;;;5052110;28;20047;-68
2022/12/20 12:29:40;;;;;;;7.80;4.85;;;;;;;;;;5048098;28;20035;-70
2022/12/20 12:32:09;;;;;;;8.07;5.45;;;;;;;;;;5035498;28;20037;-70
2022/12/20 12:34:46;;;;;;;12.02;5.18;;;;;;;;;;5051618;28;20484;-73
2022/12/20 12:37:24;;;;;;;8.45;5.10;;;;;;;;;;5044933;28;20401;-67
2022/12/20 12:40:10;;;;;;;10.68;5.47;;;;;;;;;;5053280;28;20067;-69
2022/12/20 12:42:40;;;;;;;7.20;5.18;;;;;;;;;;5035136;28;20025;-69
2022/12/20 12:45:17;;;;;;;7.20;5.28;;;;;;;;;;5047250;28;20033;-71
2022/12/20 12:47:45;;;;;;;8.18;4.90;;;;;;;;;;5049610;28;20385;-67
2022/12/20 12:50:25;;;;;;;11.27;6.25;;;;;;;;;;5017353;28;20049;-71
2022/12/20 12:52:56;;;;;;;8.38;5.15;;;;;;;;;;5035103;28;20031;-69
2022/12/20 12:55:40;;;;;;;12.25;5.72;;;;;;;;;;5034401;28;20474;-70
2022/12/20 12:58:22;;;;;;;8.18;5.13;;;;;;;;;;5051732;28;20029;-71
2022/12/20 13:00:51;;;;;;;8.45;5.90;;;;;;;;;;5050965;28;20536;-70
2022/12/20 13:03:35;;;;;;;10.98;5.68;;;;;;;;;;5050750;28;20067;-70
2022/12/20 13:06:39;;;;;;;9.00;5.55;;;;;;;;;;5052432;28;20032;-70
2022/12/20 13:09:06;;;;;;;8.25;5.82;;;;;;;;;;4970927;28;20053;-70
2022/12/20 13:11:42;;;;;;;6.35;5.05;;;;;;;;;;4954518;28;20027;-69
2022/12/20 13:14:20;;;;;;;9.13;6.00;;;;;;;;;;4985926;28;20052;-70
2022/12/20 13:16:47;;;;;;;12.65;5.45;;;;;;;;;;5026411;28;20099;-70
2022/12/20 13:19:25;;;;;;;9.57;5.07;;;;;;;;;;5028051;28;20044;-69
2022/12/20 13:22:10;;;;;;;6.32;5.15;;;;;;;;;;5025616;28;20095;-69
2022/12/20 13:24:37;;;;;;;7.65;6.00;;;;;;;;;;5032284;28;20107;-69
2022/12/20 13:27:22;;;;;;;13.93;5.75;;;;;;;;;;5028069;28;20065;-69
2022/12/20 13:29:53;;;;;;;10.32;5.35;;;;;;;;;;5047205;28;20410;-72
2022/12/20 13:32:38;;;;;;;14.25;6.40;;;;;;;;;;5012057;28;20029;-69
2022/12/20 13:35:24;;;;;;;7.95;6.55;;;;;;;;;;5018934;28;20033;-69
2022/12/20 13:37:54;;;;;;;9.00;5.72;;;;;;;;;;5024630;28;20511;-69
2022/12/20 13:40:35;;;;;;;9.18;5.53;;;;;;;;;;5027491;28;20063;-70
2022/12/20 13:43:05;;;;;;;8.07;5.80;;;;;;;;;;5023497;28;20084;-69
2022/12/20 13:45:31;;;;;;;12.20;6.70;;;;;;;;;;5028048;28;20034;-70
2022/12/20 13:48:02;;;;;;;9.40;6.50;;;;;;;;;;5031610;28;20478;-69
2022/12/20 13:50:34;;;;;;;9.20;6.32;;;;;;;;;;5030749;28;20589;-70
2022/12/20 13:53:01;;;;;;;10.18;6.68;;;;;;;;;;5029228;28;20112;-70
2022/12/20 13:55:27;;;;;;;10.95;6.15;;;;;;;;;;5025854;28;20037;-69
2022/12/20 13:57:53;;;;;;;15.13;8.13;;;;;;;;;;5031239;28;20029;-70
2022/12/20 14:00:26;;;;;;;9.68;6.60;;;;;;;;;;5045151;28;20474;-69
2022/12/20 14:02:53;;;;;;;11.18;7.82;;;;;;;;;;5030365;28;20087;-69
2022/12/20 14:05:22;;;;;;;13.07;8.00;;;;;;;;;;5031196;28;20075;-70
2022/12/20 14:07:51;;;;;;;12.63;7.78;;;;;;;;;;5030394;28;20048;-70
2022/12/20 14:10:19;;;;;;;15.90;8.20;;;;;;;;;;5043607;28;20045;-71
2022/12/20 14:12:46;;;;;;;14.43;7.45;;;;;;;;;;5050244;28;20025;-70
2022/12/20 14:15:21;;;;;;;9.40;7.38;;;;;;;;;;5021266;28;20026;-74
2022/12/20 14:17:47;;;;;;;13.52;7.95;;;;;;;;;;5040617;28;20044;-70
2022/12/20 14:20:16;;;;;;;13.48;8.77;;;;;;;;;;5040194;28;20032;-71
2022/12/20 14:23:02;;;;;;;14.80;9.00;;;;;;;;;;5050348;28;20099;-70
2022/12/20 14:25:30;;;;;;;20.83;13.52;;;;;;;;;;5044496;28;20068;-70
2022/12/20 14:27:57;;;;;;;16.08;8.85;;;;;;;;;;5033817;28;20029;-69
2022/12/20 14:30:26;;;;;;;13.65;9.88;;;;;;;;;;5033272;28;20096;-70
2022/12/20 14:32:54;;;;;;;11.85;9.07;;;;;;;;;;5046915;28;20485;-70
2022/12/20 14:35:21;;;;;;;13.07;9.32;;;;;;;;;;5033463;28;20480;-68
2022/12/20 14:38:03;;;;;;;14.95;10.30;;;;;;;;;;5035709;28;20017;-69
2022/12/20 14:40:29;;;;;;;16.43;9.93;;;;;;;;;;5016906;28;20348;-69
2022/12/20 14:42:56;;;;;;;16.23;10.88;;;;;;;;;;5039699;28;20283;-69
2022/12/20 14:45:26;;;;;;;15.13;10.88;;;;;;;;;;5023904;28;20182;-73
2022/12/20 14:48:01;;;;;;;16.23;11.70;;;;;;;;;;5040675;28;20025;-72
2022/12/20 14:50:32;;;;;;;18.60;11.48;;;;;;;;;;5041520;28;20036;-69
2022/12/20 14:52:59;;;;;;;17.67;11.73;;;;;;;;;;5039803;28;20083;-73
2022/12/20 14:55:30;;;;;;;15.00;11.52;;;;;;;;;;5007416;28;20045;-69
2022/12/20 14:57:56;;;;;;;15.02;12.05;;;;;;;;;;5041340;28;20082;-70
2022/12/20 15:00:28;;;;;;;14.48;11.05;;;;;;;;;;5043596;28;20087;-70
2022/12/20 15:03:12;;;;;;;17.67;12.18;;;;;;;;;;5036355;28;20040;-69
2022/12/20 15:05:44;;;;;;;18.83;12.10;;;;;;;;;;5054940;28;20037;-68
2022/12/20 15:08:25;;;;;;;18.63;12.75;;;;;;;;;;5052735;28;20083;-68